createdAt,value
2022-09-15T00:00:49.445Z,2.67
2022-09-15T00:03:17.241Z,3.03
2022-09-15T00:05:44.900Z,2.65
2022-09-15T00:08:13.776Z,3.05
2022-09-15T00:10:49.292Z,3.38
2022-09-15T00:13:17.178Z,3.20
2022-09-15T00:15:44.885Z,3.40
2022-09-15T00:18:12.595Z,3.65
2022-09-15T00:20:43.001Z,3.03
2022-09-15T00:23:11.547Z,3.60
2022-09-15T00:25:45.141Z,3.40
2022-09-15T00:28:14.125Z,3.53
2022-09-15T00:30:44.174Z,3.88
2022-09-15T00:33:12.363Z,3.50
2022-09-15T00:35:41.200Z,3.38
2022-09-15T00:38:10.027Z,4.50
2022-09-15T00:40:47.413Z,4.13
2022-09-15T00:43:16.121Z,4.07
2022-09-15T00:45:43.669Z,4.25
2022-09-15T00:48:16.419Z,4.35
2022-09-15T00:50:47.252Z,3.92
2022-09-15T00:53:16.420Z,4.30
2022-09-15T00:55:48.252Z,4.50
2022-09-15T00:58:23.099Z,4.40
2022-09-15T01:00:56.782Z,4.60
2022-09-15T01:03:26.540Z,4.20
2022-09-15T01:06:01.136Z,5.25
2022-09-15T01:08:41.525Z,4.47
2022-09-15T01:11:08.845Z,5.50
2022-09-15T01:13:36.256Z,4.82
2022-09-15T01:16:26.386Z,5.05
2022-09-15T01:19:02.884Z,4.70
2022-09-15T01:21:31.934Z,5.97
2022-09-15T01:24:19.172Z,5.32
2022-09-15T01:27:30.654Z,4.97
2022-09-15T01:29:57.967Z,4.90
2022-09-15T01:32:49.281Z,4.97
2022-09-15T01:35:42.834Z,4.93
2022-09-15T01:38:49.891Z,5.13
2022-09-15T01:41:56.664Z,5.72
2022-09-15T01:44:27.923Z,5.53
2022-09-15T01:46:59.970Z,5.88
2022-09-15T01:49:34.714Z,5.97
2022-09-15T01:52:02.758Z,5.70
2022-09-15T01:54:35.390Z,5.97
2022-09-15T01:57:03.656Z,5.55
2022-09-15T01:59:31.040Z,6.05
2022-09-15T02:02:13.125Z,5.70
2022-09-15T02:04:47.178Z,5.20
2022-09-15T02:07:38.470Z,5.35
2022-09-15T02:10:14.703Z,5.35
2022-09-15T02:12:58.269Z,6.00
2022-09-15T02:15:30.600Z,6.22
2022-09-15T02:17:59.269Z,6.00
2022-09-15T02:20:34.488Z,5.15
2022-09-15T02:23:13.032Z,5.60
2022-09-15T02:25:47.208Z,5.55
2022-09-15T02:28:16.381Z,5.15
2022-09-15T02:30:46.751Z,5.40
2022-09-15T02:33:17.640Z,5.40
2022-09-15T02:35:44.829Z,5.65
2022-09-15T02:38:13.272Z,6.13
2022-09-15T02:40:43.872Z,5.78
2022-09-15T02:43:16.345Z,5.60
2022-09-15T02:45:44.082Z,6.65
2022-09-15T02:48:11.971Z,6.20
2022-09-15T02:50:39.513Z,6.15
2022-09-15T02:53:07.228Z,6.53
2022-09-15T02:55:34.325Z,5.93
2022-09-15T02:58:01.759Z,6.10
2022-09-15T03:00:29.378Z,5.80
2022-09-15T03:02:56.802Z,6.13
2022-09-15T03:05:26.841Z,6.40
2022-09-15T03:07:55.083Z,6.00
2022-09-15T03:10:24.143Z,6.10
2022-09-15T03:12:54.288Z,5.80
2022-09-15T03:15:24.248Z,6.63
2022-09-15T03:17:52.328Z,6.57
2022-09-15T03:20:22.478Z,6.80
2022-09-15T03:22:50.683Z,6.97
2022-09-15T03:25:18.787Z,14.30
2022-09-15T03:27:46.337Z,15.38
2022-09-15T03:30:15.344Z,12.07
2022-09-15T03:32:42.985Z,8.02
2022-09-15T03:35:10.347Z,6.88
2022-09-15T03:37:39.971Z,6.80
2022-09-15T03:40:08.203Z,6.20
2022-09-15T03:42:35.885Z,6.00
2022-09-15T03:45:06.065Z,6.00
2022-09-15T03:47:33.810Z,6.40
2022-09-15T03:50:01.207Z,6.93
2022-09-15T03:52:32.249Z,7.13
2022-09-15T03:55:00.117Z,6.90
2022-09-15T03:57:27.662Z,6.60
2022-09-15T03:59:55.000Z,6.35
2022-09-15T04:02:23.668Z,6.30
2022-09-15T04:04:52.449Z,6.93
2022-09-15T04:07:19.748Z,6.10
2022-09-15T04:09:47.405Z,5.85
2022-09-15T04:12:14.829Z,6.22
2022-09-15T04:14:42.219Z,6.10
2022-09-15T04:17:11.192Z,6.20
2022-09-15T04:19:39.146Z,6.28
2022-09-15T04:22:07.089Z,6.00
2022-09-15T04:24:34.886Z,6.45
2022-09-15T04:27:02.610Z,5.82
2022-09-15T04:29:30.115Z,6.32
2022-09-15T04:31:58.611Z,5.88
2022-09-15T04:34:26.301Z,7.00
2022-09-15T04:36:54.201Z,5.75
2022-09-15T04:39:21.565Z,6.50
2022-09-15T04:41:48.800Z,7.63
2022-09-15T04:44:15.819Z,7.47
2022-09-15T04:46:43.028Z,7.47
2022-09-15T04:49:10.148Z,8.20
2022-09-15T04:51:37.969Z,8.43
2022-09-15T04:54:05.130Z,8.20
2022-09-15T04:56:32.225Z,8.23
2022-09-15T04:59:03.800Z,7.93
2022-09-15T05:01:34.110Z,7.18
2022-09-15T05:04:04.147Z,7.47
2022-09-15T05:06:31.953Z,6.68
2022-09-15T05:08:59.508Z,7.40
2022-09-15T05:11:28.436Z,7.20
2022-09-15T05:13:55.632Z,6.82
2022-09-15T05:16:25.674Z,6.65
2022-09-15T05:18:55.788Z,6.90
2022-09-15T05:21:24.232Z,6.50
2022-09-15T05:23:52.150Z,6.30
2022-09-15T05:26:21.916Z,6.55
2022-09-15T05:28:49.676Z,6.03
2022-09-15T05:31:19.236Z,5.18
2022-09-15T05:33:48.160Z,5.78
2022-09-15T05:36:17.437Z,5.35
2022-09-15T05:38:45.191Z,5.50
2022-09-15T05:41:14.602Z,5.40
2022-09-15T05:43:41.593Z,5.53
2022-09-15T05:46:10.633Z,4.43
2022-09-15T05:48:38.009Z,4.78
2022-09-15T05:51:05.265Z,5.10
2022-09-15T05:53:34.825Z,4.40
2022-09-15T05:56:05.302Z,4.00
2022-09-15T05:58:33.662Z,4.13
2022-09-15T06:01:09.328Z,4.72
2022-09-15T06:03:37.058Z,3.90
2022-09-15T06:06:05.663Z,4.10
2022-09-15T06:08:36.053Z,4.68
2022-09-15T06:11:05.203Z,4.63
2022-09-15T06:13:32.499Z,4.13
2022-09-15T06:16:02.443Z,4.00
2022-09-15T06:18:29.859Z,3.80
2022-09-15T06:20:57.568Z,4.15
2022-09-15T06:23:25.204Z,4.25
2022-09-15T06:25:52.327Z,3.65
2022-09-15T06:28:20.148Z,3.90
2022-09-15T06:30:49.546Z,3.92
2022-09-15T06:33:16.726Z,3.95
2022-09-15T06:35:44.096Z,3.10
2022-09-15T06:38:11.552Z,2.75
2022-09-15T06:40:38.801Z,2.80
2022-09-15T06:43:05.808Z,2.90
2022-09-15T06:45:32.983Z,2.33
2022-09-15T06:48:22.980Z,2.90
2022-09-15T06:50:54.445Z,2.53
2022-09-15T06:53:22.035Z,2.63
2022-09-15T06:55:49.195Z,2.35
2022-09-15T06:58:16.770Z,2.10
2022-09-15T07:00:44.183Z,2.08
2022-09-15T07:03:11.338Z,2.55
2022-09-15T07:05:38.783Z,2.47
2022-09-15T07:08:05.806Z,2.45
2022-09-15T07:10:33.035Z,2.58
2022-09-15T07:13:01.527Z,2.70
2022-09-15T07:15:28.688Z,2.45
2022-09-15T07:17:55.945Z,2.63
2022-09-15T07:20:22.991Z,2.92
2022-09-15T07:22:50.439Z,2.47
2022-09-15T07:25:17.429Z,3.10
2022-09-15T07:27:44.837Z,3.33
2022-09-15T07:30:13.857Z,2.92
2022-09-15T07:32:41.277Z,2.63
2022-09-15T07:35:08.763Z,2.60
2022-09-15T07:37:36.127Z,2.65
2022-09-15T07:40:03.665Z,2.60
2022-09-15T07:42:35.194Z,3.08
2022-09-15T07:45:02.917Z,3.47
2022-09-15T07:47:29.884Z,3.10
2022-09-15T07:49:57.177Z,2.90
2022-09-15T07:52:25.467Z,3.53
2022-09-15T07:54:52.604Z,3.20
2022-09-15T07:57:19.738Z,2.80
2022-09-15T07:59:46.838Z,3.40
2022-09-15T08:02:21.313Z,3.22
2022-09-15T08:04:48.495Z,3.22
2022-09-15T08:07:15.710Z,3.50
2022-09-15T08:09:42.681Z,2.92
2022-09-15T08:12:09.908Z,3.25
2022-09-15T08:14:37.112Z,2.90
2022-09-15T08:17:09.417Z,2.92
2022-09-15T08:22:05.700Z,3.38
2022-09-15T08:24:33.001Z,3.55
2022-09-15T08:27:00.078Z,3.40
2022-09-15T08:29:27.343Z,3.42
2022-09-15T08:31:54.414Z,3.25
2022-09-15T08:34:21.727Z,2.70
2022-09-15T08:36:48.781Z,2.97
2022-09-15T08:39:16.013Z,3.50
2022-09-15T08:41:47.037Z,3.42
2022-09-15T08:44:45.234Z,3.40
2022-09-15T08:47:23.909Z,3.50
2022-09-15T08:50:10.958Z,3.60
2022-09-15T08:52:44.376Z,3.17
2022-09-15T08:55:31.472Z,2.38
2022-09-15T08:57:58.857Z,3.05
2022-09-15T09:00:27.244Z,3.28
2022-09-15T09:03:30.661Z,2.40
2022-09-15T09:06:22.003Z,2.92
2022-09-15T09:09:03.444Z,3.13
2022-09-15T09:11:50.496Z,3.05
2022-09-15T09:14:28.766Z,2.80
2022-09-15T09:17:04.318Z,2.53
2022-09-15T09:19:47.048Z,3.03
2022-09-15T09:22:21.962Z,2.53
2022-09-15T09:24:53.721Z,3.45
2022-09-15T09:27:24.879Z,2.92
2022-09-15T09:29:59.690Z,2.75
2022-09-15T09:32:35.466Z,2.60
2022-09-15T09:35:14.650Z,2.85
2022-09-15T09:37:41.937Z,2.75
2022-09-15T09:40:14.834Z,3.17
2022-09-15T09:42:44.086Z,2.58
2022-09-15T09:45:15.789Z,2.90
2022-09-15T09:47:43.486Z,2.83
2022-09-15T09:50:32.616Z,3.40
2022-09-15T09:52:59.856Z,2.60
2022-09-15T09:55:28.213Z,2.95
2022-09-15T09:58:13.271Z,3.03
2022-09-15T10:00:41.279Z,2.90
2022-09-15T10:03:16.981Z,2.50
2022-09-15T10:05:46.135Z,3.00
2022-09-15T10:08:19.618Z,2.50
2022-09-15T10:10:53.444Z,2.58
2022-09-15T10:13:21.743Z,2.83
2022-09-15T10:15:59.705Z,3.00
2022-09-15T10:18:38.123Z,3.00
2022-09-15T10:21:08.193Z,2.25
2022-09-15T10:23:36.191Z,2.38
2022-09-15T10:26:19.087Z,3.08
2022-09-15T10:29:10.571Z,2.17
2022-09-15T10:31:37.788Z,2.70
2022-09-15T10:34:25.654Z,2.67
2022-09-15T10:36:55.311Z,2.28
2022-09-15T10:39:35.929Z,2.80
2022-09-15T10:42:04.694Z,2.75
2022-09-15T10:44:58.225Z,2.40
2022-09-15T10:47:43.277Z,2.58
2022-09-15T10:50:32.310Z,1.80
2022-09-15T10:53:02.872Z,2.80
2022-09-15T10:56:01.879Z,2.63
2022-09-15T10:58:39.903Z,2.55
2022-09-15T11:01:17.842Z,2.30
2022-09-15T11:04:04.834Z,2.20
2022-09-15T11:06:40.175Z,2.28
2022-09-15T11:09:15.441Z,2.17
2022-09-15T11:12:18.077Z,2.15
2022-09-15T11:14:45.511Z,2.53
2022-09-15T11:17:40.154Z,2.75
2022-09-15T11:20:18.122Z,2.13
2022-09-15T11:23:05.116Z,2.10
2022-09-15T11:25:36.628Z,2.00
2022-09-15T11:28:28.384Z,2.38
2022-09-15T11:31:34.525Z,2.10
2022-09-15T11:34:10.645Z,2.28
2022-09-15T11:36:51.298Z,2.10
2022-09-15T11:39:24.207Z,2.63
2022-09-15T11:41:59.683Z,2.65
2022-09-15T11:44:33.316Z,2.28
2022-09-15T11:47:21.560Z,3.10
2022-09-15T11:49:57.362Z,2.40
2022-09-15T11:52:34.393Z,2.45
2022-09-15T11:55:27.713Z,2.75
2022-09-15T11:58:23.559Z,2.35
2022-09-15T12:01:10.771Z,1.88
2022-09-15T12:03:50.748Z,1.17
2022-09-15T12:06:22.329Z,1.42
2022-09-15T12:09:01.841Z,1.60
2022-09-15T12:11:32.398Z,2.55
2022-09-15T12:14:02.159Z,1.98
2022-09-15T12:16:30.361Z,2.30
2022-09-15T12:18:59.982Z,2.17
2022-09-15T12:21:30.619Z,2.45
2022-09-15T12:24:00.236Z,2.13
2022-09-15T12:26:28.936Z,1.80
2022-09-15T12:29:02.387Z,2.28
2022-09-15T12:31:39.681Z,1.60
2022-09-15T12:34:30.554Z,1.88
2022-09-15T12:37:15.395Z,1.88
2022-09-15T12:42:31.449Z,2.67
2022-09-15T12:45:08.155Z,1.90
2022-09-15T12:47:41.618Z,1.80
2022-09-15T12:50:29.621Z,1.48
2022-09-15T12:53:01.368Z,1.88
2022-09-15T12:55:31.879Z,1.85
2022-09-15T12:58:06.878Z,2.00
2022-09-15T13:00:54.810Z,1.80
2022-09-15T13:03:51.376Z,2.00
2022-09-15T13:06:22.069Z,1.83
2022-09-15T13:08:51.917Z,1.83
2022-09-15T13:11:31.990Z,1.77
2022-09-15T13:14:04.419Z,2.17
2022-09-15T13:16:40.822Z,2.30
2022-09-15T13:19:15.041Z,2.30
2022-09-15T13:21:47.949Z,1.77
2022-09-15T13:24:20.601Z,1.83
2022-09-15T13:26:55.826Z,1.90
2022-09-15T13:29:24.633Z,1.80
2022-09-15T13:31:58.175Z,2.05
2022-09-15T13:35:04.317Z,1.73
2022-09-15T13:38:15.088Z,1.90
2022-09-15T13:41:07.664Z,2.00
2022-09-15T13:44:10.644Z,2.45
2022-09-15T13:46:52.482Z,1.48
2022-09-15T13:49:46.960Z,1.55
2022-09-15T13:52:32.982Z,1.30
2022-09-15T13:55:24.125Z,1.55
2022-09-15T14:00:55.620Z,1.42
2022-09-15T14:03:34.130Z,1.70
2022-09-15T14:06:01.397Z,1.63
2022-09-15T14:08:33.483Z,1.70
2022-09-15T14:11:04.349Z,1.50
2022-09-15T14:13:31.957Z,1.40
2022-09-15T14:16:19.647Z,1.10
2022-09-15T14:18:47.373Z,1.23
2022-09-15T14:21:22.663Z,0.95
2022-09-15T14:23:54.133Z,1.65
2022-09-15T14:26:28.652Z,1.40
2022-09-15T14:28:58.902Z,1.20
2022-09-15T14:31:38.637Z,1.35
2022-09-15T14:34:14.667Z,1.13
2022-09-15T14:36:42.125Z,1.55
2022-09-15T14:39:12.538Z,1.52
2022-09-15T14:41:42.314Z,1.13
2022-09-15T14:47:28.791Z,0.98
2022-09-15T14:50:18.198Z,1.20
2022-09-15T14:53:04.494Z,0.95
2022-09-15T14:55:34.411Z,0.85
2022-09-15T14:58:07.532Z,0.80
2022-09-15T15:00:41.438Z,1.13
2022-09-15T15:03:33.443Z,0.85
2022-09-15T15:06:28.419Z,0.90
2022-09-15T15:09:03.258Z,0.90
2022-09-15T15:11:33.432Z,1.10
2022-09-15T15:14:02.136Z,1.00
2022-09-15T15:16:31.196Z,1.02
2022-09-15T15:18:59.071Z,1.10
2022-09-15T15:21:35.747Z,1.90
2022-09-15T15:24:17.055Z,1.10
2022-09-15T15:26:47.750Z,1.55
2022-09-15T15:29:37.791Z,1.52
2022-09-15T15:32:10.985Z,1.77
2022-09-15T15:34:38.448Z,2.55
2022-09-15T15:37:18.514Z,1.70
2022-09-15T15:39:46.743Z,1.77
2022-09-15T15:42:17.075Z,1.60
2022-09-15T15:45:20.563Z,1.30
2022-09-15T15:47:48.409Z,1.30
2022-09-15T15:50:21.183Z,1.00
2022-09-15T15:52:49.630Z,1.38
2022-09-15T15:55:20.144Z,1.08
2022-09-15T15:57:50.463Z,1.13
2022-09-15T16:00:23.863Z,1.48
2022-09-15T16:02:52.314Z,1.58
2022-09-15T16:05:25.294Z,1.45
2022-09-15T16:07:54.427Z,1.88
2022-09-15T16:10:24.399Z,2.38
2022-09-15T16:12:52.094Z,3.38
2022-09-15T16:15:20.259Z,3.10
2022-09-15T16:17:48.448Z,2.00
2022-09-15T16:20:16.976Z,1.42
2022-09-15T16:22:44.314Z,1.67
2022-09-15T16:25:17.815Z,1.70
2022-09-15T16:27:44.925Z,1.90
2022-09-15T16:30:12.623Z,2.08
2022-09-15T16:32:41.001Z,2.20
2022-09-15T16:35:19.682Z,1.95
2022-09-15T16:37:46.760Z,2.17
2022-09-15T16:40:14.324Z,1.77
2022-09-15T16:42:41.448Z,1.88
2022-09-15T16:45:21.163Z,1.95
2022-09-15T16:47:48.825Z,1.60
2022-09-15T16:50:16.163Z,1.60
2022-09-15T16:52:43.762Z,1.75
2022-09-15T16:55:22.628Z,1.90
2022-09-15T16:57:50.494Z,1.70
2022-09-15T17:00:18.195Z,1.83
2022-09-15T17:02:45.293Z,1.77
2022-09-15T17:05:23.797Z,2.30
2022-09-15T17:07:51.015Z,1.98
2022-09-15T17:10:19.422Z,1.95
2022-09-15T17:12:46.891Z,2.40
2022-09-15T17:15:29.049Z,2.20
2022-09-15T17:17:57.123Z,2.70
2022-09-15T17:20:25.998Z,2.90
2022-09-15T17:22:54.714Z,3.70
2022-09-15T17:25:29.804Z,3.00
2022-09-15T17:27:58.612Z,3.33
2022-09-15T17:30:28.384Z,3.20
2022-09-15T17:33:15.851Z,2.70
2022-09-15T17:35:43.387Z,3.15
2022-09-15T17:38:10.587Z,3.45
2022-09-15T17:40:38.082Z,3.72
2022-09-15T17:43:05.490Z,3.40
2022-09-15T17:45:35.478Z,4.30
2022-09-15T17:48:04.422Z,3.15
2022-09-15T17:50:33.863Z,3.55
2022-09-15T17:53:01.329Z,3.83
2022-09-15T17:55:31.847Z,4.00
2022-09-15T17:58:00.974Z,4.03
2022-09-15T18:00:30.730Z,3.70
2022-09-15T18:03:01.147Z,4.07
2022-09-15T18:05:34.745Z,3.72
2022-09-15T18:08:05.000Z,3.85
2022-09-15T18:10:33.719Z,4.13
2022-09-15T18:13:01.719Z,3.88
2022-09-15T18:15:31.371Z,3.53
2022-09-15T18:18:04.065Z,3.25
2022-09-15T18:20:33.176Z,3.42
2022-09-15T18:23:01.157Z,3.05
2022-09-15T18:25:32.558Z,3.05
2022-09-15T18:28:01.533Z,2.63
2022-09-15T18:30:31.357Z,2.45
2022-09-15T18:32:59.836Z,2.60
2022-09-15T18:35:27.965Z,3.00
2022-09-15T18:38:01.046Z,3.65
2022-09-15T18:40:28.513Z,4.25
2022-09-15T18:42:56.644Z,4.10
2022-09-15T18:45:24.480Z,4.28
2022-09-15T18:47:53.029Z,3.88
2022-09-15T18:50:23.173Z,4.38
2022-09-15T18:52:50.408Z,3.70
2022-09-15T18:55:20.389Z,4.13
2022-09-15T18:57:48.412Z,4.38
2022-09-15T19:00:19.747Z,4.22
2022-09-15T19:02:47.625Z,4.50
2022-09-15T19:05:16.331Z,3.92
2022-09-15T19:07:45.017Z,3.65
2022-09-15T19:10:14.408Z,3.90
2022-09-15T19:12:41.607Z,4.15
2022-09-15T19:15:11.374Z,4.47
2022-09-15T19:17:39.970Z,4.32
2022-09-15T19:20:08.915Z,4.50
2022-09-15T19:22:37.654Z,4.93
2022-09-15T19:25:06.017Z,5.05
2022-09-15T19:27:33.277Z,4.95
2022-09-15T19:30:01.202Z,4.63
2022-09-15T19:32:28.283Z,5.10
2022-09-15T19:34:55.539Z,5.07
2022-09-15T19:37:23.062Z,5.57
2022-09-15T19:39:50.628Z,5.22
2022-09-15T19:42:18.518Z,5.53
2022-09-15T19:44:46.149Z,5.07
2022-09-15T19:47:13.321Z,4.88
2022-09-15T19:49:40.385Z,5.07
2022-09-15T19:52:08.233Z,5.82
2022-09-15T19:54:35.813Z,5.30
2022-09-15T19:57:03.932Z,5.45
2022-09-15T19:59:32.084Z,4.88
2022-09-15T20:02:01.082Z,5.20
2022-09-15T20:04:29.263Z,5.18
2022-09-15T20:06:56.316Z,5.13
2022-09-15T20:09:23.513Z,5.13
2022-09-15T20:11:50.663Z,5.32
2022-09-15T20:14:17.763Z,5.95
2022-09-15T20:16:44.758Z,5.38
2022-09-15T20:19:12.217Z,4.82
2022-09-15T20:21:56.611Z,4.75
2022-09-15T20:24:24.700Z,4.72
2022-09-15T20:26:52.371Z,4.68
2022-09-15T20:29:20.374Z,4.32
2022-09-15T20:31:48.045Z,4.88
2022-09-15T20:34:16.153Z,4.93
2022-09-15T20:36:43.777Z,4.80
2022-09-15T20:39:14.610Z,4.72
2022-09-15T20:41:46.870Z,4.70
2022-09-15T20:44:14.255Z,4.25
2022-09-15T20:46:42.049Z,4.28
2022-09-15T20:49:10.150Z,4.25
2022-09-15T20:51:37.228Z,4.43
2022-09-15T20:54:05.316Z,4.70
2022-09-15T20:56:35.105Z,4.93
2022-09-15T20:59:03.753Z,4.97
2022-09-15T21:01:36.800Z,4.55
2022-09-15T21:04:05.764Z,4.82
2022-09-15T21:06:33.050Z,4.53
2022-09-15T21:09:00.782Z,5.30
2022-09-15T21:11:28.682Z,5.00
2022-09-15T21:13:57.127Z,4.55
2022-09-15T21:16:26.985Z,4.70
2022-09-15T21:18:55.551Z,4.65
2022-09-15T21:21:29.946Z,5.78
2022-09-15T21:26:29.335Z,5.15
2022-09-15T21:28:57.615Z,5.57
2022-09-15T21:31:27.778Z,5.45
2022-09-15T21:33:55.941Z,4.70
2022-09-15T21:36:27.115Z,5.13
2022-09-15T21:38:56.339Z,5.18
2022-09-15T21:41:27.035Z,4.82
2022-09-15T21:43:55.352Z,4.43
2022-09-15T21:46:25.300Z,4.80
2022-09-15T21:48:53.174Z,4.93
2022-09-15T21:51:25.052Z,4.90
2022-09-15T21:53:54.452Z,4.63
2022-09-15T21:56:23.015Z,4.75
2022-09-15T21:58:50.909Z,4.50
2022-09-15T22:01:21.098Z,4.80
2022-09-15T22:03:51.950Z,5.40
2022-09-15T22:06:21.010Z,5.68
2022-09-15T22:08:48.951Z,4.60
2022-09-15T22:11:16.063Z,5.28
2022-09-15T22:13:44.773Z,4.82
2022-09-15T22:16:16.056Z,5.97
2022-09-15T22:18:44.070Z,5.13
2022-09-15T22:21:20.835Z,4.65
2022-09-15T22:23:49.265Z,4.75
2022-09-15T22:26:21.158Z,4.80
2022-09-15T22:28:48.679Z,4.57
2022-09-15T22:31:18.253Z,3.90
2022-09-15T22:33:45.842Z,3.85
2022-09-15T22:36:15.059Z,4.28
2022-09-15T22:38:42.879Z,4.45
2022-09-15T22:41:13.719Z,4.35
2022-09-15T22:43:42.486Z,4.60
2022-09-15T22:46:11.361Z,4.78
2022-09-15T22:48:43.313Z,4.32
2022-09-15T22:51:12.174Z,4.65
2022-09-15T22:53:39.408Z,4.15
2022-09-15T22:56:09.485Z,4.22
2022-09-15T22:58:37.480Z,4.55
2022-09-15T23:01:10.611Z,3.80
2022-09-15T23:03:39.002Z,4.05
2022-09-15T23:06:07.841Z,4.15
2022-09-15T23:08:36.397Z,4.20
2022-09-15T23:11:07.447Z,4.20
2022-09-15T23:13:34.699Z,3.92
2022-09-15T23:16:02.465Z,4.05
2022-09-15T23:18:30.442Z,4.13
2022-09-15T23:21:00.809Z,4.40
2022-09-15T23:23:28.575Z,3.83
2022-09-15T23:25:56.373Z,4.03
2022-09-15T23:28:24.607Z,4.03
2022-09-15T23:30:54.033Z,4.70
2022-09-15T23:33:22.973Z,4.50
2022-09-15T23:35:50.571Z,3.90
2022-09-15T23:38:19.466Z,3.95
2022-09-15T23:40:48.028Z,3.90
2022-09-15T23:43:15.534Z,4.25
2022-09-15T23:45:43.634Z,4.18
2022-09-15T23:48:11.914Z,4.78
2022-09-15T23:50:39.822Z,4.05
2022-09-15T23:53:08.074Z,4.00
2022-09-15T23:55:35.649Z,4.05
2022-09-15T23:58:03.761Z,4.68
